createdAt,value
2022-09-28T00:01:25.792Z,98168.69
2022-09-28T00:03:57.558Z,98166.91
2022-09-28T00:06:27.799Z,98162.47
2022-09-28T00:08:57.855Z,98160.84
2022-09-28T00:11:28.257Z,98170.22
2022-09-28T00:14:00.165Z,98172.84
2022-09-28T00:16:31.170Z,98175.66
2022-09-28T00:18:59.638Z,98178.59
2022-09-28T00:21:30.114Z,98193.75
2022-09-28T00:24:14.893Z,98197.31
2022-09-28T00:26:46.314Z,98201.25
2022-09-28T00:29:18.963Z,98196.63
2022-09-28T00:31:47.650Z,98201.22
2022-09-28T00:34:17.363Z,98191.88
2022-09-28T00:36:47.283Z,98195.03
2022-09-28T00:39:18.017Z,98201.81
2022-09-28T00:41:47.442Z,98197.16
2022-09-28T00:44:38.203Z,98196.59
2022-09-28T00:47:33.914Z,98198.72
2022-09-28T00:50:06.507Z,98185.84
2022-09-28T00:52:40.639Z,98189.38
2022-09-28T00:55:13.592Z,98171.19
2022-09-28T00:57:46.739Z,98184.59
2022-09-28T01:00:15.809Z,98181.88
2022-09-28T01:02:45.506Z,98181.09
2022-09-28T01:05:15.055Z,98190.63
2022-09-28T01:07:45.765Z,98180.00
2022-09-28T01:10:16.411Z,98178.59
2022-09-28T01:12:44.966Z,98175.03
2022-09-28T01:15:14.740Z,98191.41
2022-09-28T01:18:04.007Z,98192.13
2022-09-28T01:20:57.221Z,98191.97
2022-09-28T01:24:01.596Z,98201.31
2022-09-28T01:26:47.628Z,98189.19
2022-09-28T01:29:31.496Z,98196.53
2022-09-28T01:32:13.488Z,98192.97
2022-09-28T01:34:49.372Z,98187.66
2022-09-28T01:37:21.325Z,98176.31
2022-09-28T01:39:53.071Z,98184.41
2022-09-28T01:42:28.442Z,98171.91
2022-09-28T01:45:04.284Z,98170.31
2022-09-28T01:47:37.213Z,98180.59
2022-09-28T01:50:12.503Z,98179.88
2022-09-28T01:52:49.202Z,98179.53
2022-09-28T01:55:26.174Z,98186.09
2022-09-28T01:58:01.326Z,98181.13
2022-09-28T02:00:30.922Z,98189.28
2022-09-28T02:03:09.177Z,98175.03
2022-09-28T02:05:49.735Z,98179.34
2022-09-28T02:08:26.941Z,98175.88
2022-09-28T02:11:10.427Z,98180.91
2022-09-28T02:13:44.576Z,98188.53
2022-09-28T02:16:20.934Z,98172.28
2022-09-28T02:18:52.165Z,98164.97
2022-09-28T02:21:27.641Z,98169.38
2022-09-28T02:24:02.157Z,98167.09
2022-09-28T02:26:36.143Z,98178.53
2022-09-28T02:29:06.218Z,98172.69
2022-09-28T02:31:35.857Z,98185.56
2022-09-28T02:34:04.341Z,98186.03
2022-09-28T02:36:34.664Z,98200.00
2022-09-28T02:39:03.375Z,98204.72
2022-09-28T02:41:47.496Z,98199.16
2022-09-28T02:44:39.019Z,98202.81
2022-09-28T02:47:17.908Z,98204.84
2022-09-28T02:49:55.820Z,98214.50
2022-09-28T02:52:57.180Z,98220.53
2022-09-28T02:55:40.791Z,98226.34
2022-09-28T02:58:23.292Z,98231.06
2022-09-28T03:01:02.619Z,98233.41
2022-09-28T03:03:38.380Z,98231.59
2022-09-28T03:06:14.813Z,98236.94
2022-09-28T03:08:55.640Z,98234.66
2022-09-28T03:11:33.202Z,98229.34
2022-09-28T03:14:03.185Z,98222.47
2022-09-28T03:16:46.285Z,98226.91
2022-09-28T03:19:17.340Z,98229.47
2022-09-28T03:21:46.324Z,98227.72
2022-09-28T03:24:14.750Z,98235.41
2022-09-28T03:26:43.053Z,98243.91
2022-09-28T03:29:12.909Z,98245.44
2022-09-28T03:31:41.605Z,98252.31
2022-09-28T03:34:11.823Z,98269.31
2022-09-28T03:36:40.481Z,98264.38
2022-09-28T03:39:08.859Z,98261.91
2022-09-28T03:41:38.318Z,98269.91
2022-09-28T03:44:07.028Z,98265.63
2022-09-28T03:46:35.962Z,98262.31
2022-09-28T03:49:11.369Z,98269.38
2022-09-28T03:51:39.809Z,98264.25
2022-09-28T03:54:10.523Z,98254.91
2022-09-28T03:56:38.977Z,98251.22
2022-09-28T03:59:07.844Z,98242.78
2022-09-28T04:01:38.224Z,98238.31
2022-09-28T04:04:07.097Z,98233.06
2022-09-28T04:06:37.709Z,98228.03
2022-09-28T04:09:06.868Z,98227.72
2022-09-28T04:11:59.382Z,98235.72
2022-09-28T04:14:24.715Z,98240.75
2022-09-28T04:16:54.883Z,98260.28
2022-09-28T04:19:25.521Z,98263.88
2022-09-28T04:22:24.790Z,98260.00
2022-09-28T04:24:53.340Z,98248.63
2022-09-28T04:27:39.415Z,98234.41
2022-09-28T04:30:09.820Z,98225.13
2022-09-28T04:32:38.941Z,98224.72
2022-09-28T04:35:08.491Z,98217.13
2022-09-28T04:37:38.444Z,98234.09
2022-09-28T04:40:07.796Z,98237.72
2022-09-28T04:42:36.900Z,98240.94
2022-09-28T04:45:06.525Z,98238.94
2022-09-28T04:47:38.665Z,98241.34
2022-09-28T04:50:30.430Z,98236.38
2022-09-28T04:53:14.177Z,98249.47
2022-09-28T04:55:43.200Z,98246.00
2022-09-28T04:58:11.529Z,98253.97
2022-09-28T05:00:40.398Z,98246.06
2022-09-28T05:03:19.544Z,98247.63
2022-09-28T05:06:15.968Z,98248.81
2022-09-28T05:08:47.949Z,98263.66
2022-09-28T05:11:18.374Z,98270.56
2022-09-28T05:13:48.497Z,98270.25
2022-09-28T05:16:20.454Z,98281.91
2022-09-28T05:19:12.523Z,98280.78
2022-09-28T05:21:46.875Z,98287.75
2022-09-28T05:24:17.556Z,98283.41
2022-09-28T05:26:51.722Z,98284.59
2022-09-28T05:29:21.138Z,98290.38
2022-09-28T05:32:08.558Z,98291.78
2022-09-28T05:34:41.006Z,98291.19
2022-09-28T05:37:13.432Z,98290.84
2022-09-28T05:39:43.174Z,98297.94
2022-09-28T05:42:11.525Z,98288.81
2022-09-28T05:44:40.101Z,98279.88
2022-09-28T05:47:08.546Z,98268.94
2022-09-28T05:49:36.949Z,98271.28
2022-09-28T05:52:05.502Z,98281.22
2022-09-28T05:54:37.328Z,98286.63
2022-09-28T05:57:07.614Z,98297.06
2022-09-28T05:59:36.563Z,98301.56
2022-09-28T06:02:06.037Z,98303.41
2022-09-28T06:04:34.722Z,98299.56
2022-09-28T06:07:03.393Z,98298.31
2022-09-28T06:09:31.905Z,98299.88
2022-09-28T06:12:03.212Z,98300.41
2022-09-28T06:14:41.400Z,98300.16
2022-09-28T06:17:09.900Z,98290.66
2022-09-28T06:19:39.090Z,98292.25
2022-09-28T06:22:17.597Z,98284.81
2022-09-28T06:25:08.688Z,98287.06
2022-09-28T06:27:37.743Z,98286.19
2022-09-28T06:30:08.472Z,98289.25
2022-09-28T06:32:37.889Z,98296.06
2022-09-28T06:35:08.802Z,98291.78
2022-09-28T06:37:37.440Z,98280.66
2022-09-28T06:40:08.922Z,98281.88
2022-09-28T06:42:37.764Z,98276.31
2022-09-28T06:45:27.012Z,98275.38
2022-09-28T06:48:33.480Z,98274.19
2022-09-28T06:51:03.789Z,98276.00
2022-09-28T06:53:41.540Z,98275.06
2022-09-28T06:56:12.870Z,98293.50
2022-09-28T06:58:41.218Z,98296.16
2022-09-28T07:01:12.131Z,98303.91
2022-09-28T07:03:55.549Z,98306.53
2022-09-28T07:06:48.223Z,98303.72
2022-09-28T07:09:50.292Z,98311.38
2022-09-28T07:12:32.313Z,98317.22
2022-09-28T07:15:03.874Z,98312.59
2022-09-28T07:17:46.454Z,98295.34
2022-09-28T07:20:25.120Z,98303.13
2022-09-28T07:22:58.455Z,98313.75
2022-09-28T07:25:31.582Z,98302.00
2022-09-28T07:28:20.375Z,98300.88
2022-09-28T07:31:09.648Z,98306.63
2022-09-28T07:34:09.049Z,98304.66
2022-09-28T07:36:59.651Z,98307.91
2022-09-28T07:39:28.445Z,98316.22
2022-09-28T07:41:59.788Z,98317.59
2022-09-28T07:44:31.479Z,98324.16
2022-09-28T07:47:02.612Z,98315.94
2022-09-28T07:49:52.517Z,98311.31
2022-09-28T07:52:39.169Z,98318.69
2022-09-28T07:55:15.861Z,98314.34
2022-09-28T07:58:08.656Z,98310.09
2022-09-28T08:01:08.623Z,98295.00
2022-09-28T08:03:38.061Z,98300.41
2022-09-28T08:06:12.665Z,98299.47
2022-09-28T08:08:43.879Z,98293.03
2022-09-28T08:11:18.130Z,98296.56
2022-09-28T08:14:07.225Z,98299.88
2022-09-28T08:17:01.235Z,98299.59
2022-09-28T08:20:03.824Z,98294.78
2022-09-28T08:22:33.947Z,98292.81
2022-09-28T08:25:03.102Z,98300.53
2022-09-28T08:27:31.526Z,98288.81
2022-09-28T08:29:59.911Z,98286.25
2022-09-28T08:32:49.837Z,98284.69
2022-09-28T08:35:47.295Z,98284.84
2022-09-28T08:38:24.572Z,98281.81
2022-09-28T08:41:36.993Z,98270.06
2022-09-28T08:44:23.951Z,98267.31
2022-09-28T08:47:39.451Z,98262.59
2022-09-28T08:50:50.648Z,98256.97
2022-09-28T08:54:08.148Z,98251.47
2022-09-28T08:56:53.923Z,98253.72
2022-09-28T09:02:22.637Z,98248.06
2022-09-28T09:04:53.163Z,98255.28
2022-09-28T09:07:47.899Z,98256.25
2022-09-28T09:10:37.414Z,98247.88
2022-09-28T09:13:23.608Z,98246.59
2022-09-28T09:16:03.356Z,98239.19
2022-09-28T09:18:57.402Z,98229.59
2022-09-28T09:21:42.428Z,98228.03
2022-09-28T09:24:27.108Z,98217.94
2022-09-28T09:27:07.125Z,98214.44
2022-09-28T09:29:56.729Z,98219.13
2022-09-28T09:32:54.931Z,98217.00
2022-09-28T09:35:53.940Z,98225.91
2022-09-28T09:38:52.390Z,98224.53
2022-09-28T09:41:54.629Z,98225.06
2022-09-28T09:45:08.115Z,98223.38
2022-09-28T09:47:52.895Z,98235.16
2022-09-28T09:50:30.815Z,98226.97
2022-09-28T09:53:05.989Z,98230.91
2022-09-28T09:55:41.893Z,98233.03
2022-09-28T09:58:32.640Z,98226.91
2022-09-28T10:01:31.453Z,98217.84
2022-09-28T10:04:30.836Z,98219.97
2022-09-28T10:07:05.485Z,98212.13
2022-09-28T10:09:40.745Z,98221.88
2022-09-28T10:12:34.317Z,98228.06
2022-09-28T10:15:05.360Z,98231.22
2022-09-28T10:17:45.304Z,98222.53
2022-09-28T10:20:36.254Z,98214.56
2022-09-28T10:23:33.998Z,98206.09
2022-09-28T10:26:08.034Z,98197.59
2022-09-28T10:28:44.185Z,98188.00
2022-09-28T10:31:35.485Z,98194.50
2022-09-28T10:34:08.176Z,98189.72
2022-09-28T10:36:48.219Z,98199.28
2022-09-28T10:39:31.293Z,98202.78
2022-09-28T10:42:03.582Z,98200.78
2022-09-28T10:44:35.774Z,98204.81
2022-09-28T10:47:26.186Z,98190.03
2022-09-28T10:49:57.562Z,98185.38
2022-09-28T10:52:36.570Z,98180.69
2022-09-28T10:55:27.197Z,98181.16
2022-09-28T10:57:56.175Z,98170.53
2022-09-28T11:00:36.174Z,98171.25
2022-09-28T11:03:24.308Z,98161.88
2022-09-28T11:05:59.128Z,98163.09
2022-09-28T11:08:31.601Z,98158.19
2022-09-28T11:11:05.484Z,98162.63
2022-09-28T11:13:41.151Z,98164.25
2022-09-28T11:16:22.016Z,98161.50
2022-09-28T11:18:51.154Z,98159.66
2022-09-28T11:21:26.601Z,98160.06
2022-09-28T11:24:07.281Z,98150.22
2022-09-28T11:26:43.735Z,98155.31
2022-09-28T11:29:23.431Z,98153.31
2022-09-28T11:32:08.996Z,98143.78
2022-09-28T11:35:00.536Z,98147.91
2022-09-28T11:37:46.999Z,98151.16
2022-09-28T11:40:28.821Z,98141.44
2022-09-28T11:43:10.696Z,98138.19
2022-09-28T11:45:53.608Z,98142.38
2022-09-28T11:48:26.821Z,98131.94
2022-09-28T11:51:02.028Z,98134.56
2022-09-28T11:53:36.107Z,98132.81
2022-09-28T11:56:12.019Z,98132.50
2022-09-28T11:58:45.574Z,98122.19
2022-09-28T12:01:26.348Z,98121.16
2022-09-28T12:04:16.061Z,98106.41
2022-09-28T12:06:50.927Z,98103.94
2022-09-28T12:09:29.109Z,98109.13
2022-09-28T12:12:22.408Z,98102.28
2022-09-28T12:15:17.935Z,98110.22
2022-09-28T12:17:51.782Z,98096.06
2022-09-28T12:20:25.477Z,98089.44
2022-09-28T12:23:05.005Z,98090.59
2022-09-28T12:25:42.079Z,98086.34
2022-09-28T12:28:23.099Z,98083.22
2022-09-28T12:30:53.760Z,98084.47
2022-09-28T12:33:22.503Z,98078.41
2022-09-28T12:36:07.771Z,98074.50
2022-09-28T12:39:08.474Z,98083.88
2022-09-28T12:41:56.431Z,98082.00
2022-09-28T12:44:41.704Z,98074.69
2022-09-28T12:47:27.007Z,98073.66
2022-09-28T12:53:38.812Z,98057.03
2022-09-28T12:56:21.551Z,98064.09
2022-09-28T12:59:04.455Z,98067.25
2022-09-28T13:01:59.018Z,98066.25
2022-09-28T13:04:45.088Z,98070.56
2022-09-28T13:07:21.612Z,98077.25
2022-09-28T13:10:02.378Z,98076.50
2022-09-28T13:12:46.655Z,98068.84
2022-09-28T13:15:43.677Z,98069.44
2022-09-28T13:18:20.770Z,98067.66
2022-09-28T13:21:16.816Z,98058.59
2022-09-28T13:23:48.457Z,98056.16
2022-09-28T13:26:25.409Z,98061.50
2022-09-28T13:28:57.088Z,98057.00
2022-09-28T13:31:33.181Z,98058.59
2022-09-28T13:34:05.985Z,98056.28
2022-09-28T13:36:39.480Z,98049.00
2022-09-28T13:39:37.163Z,98052.00
2022-09-28T13:42:09.969Z,98050.69
2022-09-28T13:44:52.147Z,98054.94
2022-09-28T13:47:44.452Z,98055.91
2022-09-28T13:50:28.628Z,98059.06
2022-09-28T13:53:05.263Z,98058.72
2022-09-28T13:55:49.113Z,98056.88
2022-09-28T13:58:24.703Z,98066.00
2022-09-28T14:01:01.247Z,98066.91
2022-09-28T14:03:44.757Z,98060.56
2022-09-28T14:06:25.431Z,98065.59
2022-09-28T14:09:10.754Z,98060.19
2022-09-28T14:11:44.483Z,98060.72
2022-09-28T14:14:48.651Z,98064.16
2022-09-28T14:18:00.528Z,98066.41
2022-09-28T14:20:32.533Z,98060.72
2022-09-28T14:23:45.282Z,98067.06
2022-09-28T14:26:41.964Z,98069.25
2022-09-28T14:29:27.853Z,98069.47
2022-09-28T14:31:58.835Z,98069.72
2022-09-28T14:34:34.216Z,98076.00
2022-09-28T14:37:24.645Z,98071.84
2022-09-28T14:40:11.270Z,98073.66
2022-09-28T14:42:40.259Z,98061.81
2022-09-28T14:45:36.039Z,98057.19
2022-09-28T14:48:20.276Z,98060.31
2022-09-28T14:50:50.064Z,98063.00
2022-09-28T14:53:23.197Z,98059.34
2022-09-28T14:55:56.313Z,98057.50
2022-09-28T14:58:27.532Z,98047.28
2022-09-28T15:01:11.116Z,98055.16
2022-09-28T15:03:43.406Z,98057.13
2022-09-28T15:06:15.966Z,98054.50
2022-09-28T15:08:45.787Z,98050.78
2022-09-28T15:11:19.949Z,98046.91
2022-09-28T15:13:48.405Z,98050.03
2022-09-28T15:16:18.857Z,98043.66
2022-09-28T15:19:15.706Z,98034.88
2022-09-28T15:21:47.522Z,98032.81
2022-09-28T15:24:31.432Z,98035.28
2022-09-28T15:27:00.850Z,98046.06
2022-09-28T15:29:33.571Z,98039.28
2022-09-28T15:32:03.988Z,98042.56
2022-09-28T15:34:51.606Z,98043.41
2022-09-28T15:37:23.265Z,98038.53
2022-09-28T15:39:54.486Z,98047.63
2022-09-28T15:42:23.654Z,98049.25
2022-09-28T15:45:07.799Z,98046.09
2022-09-28T15:47:40.054Z,98050.34
2022-09-28T15:50:21.211Z,98046.84
2022-09-28T15:52:56.057Z,98047.81
2022-09-28T15:55:29.212Z,98045.16
2022-09-28T15:58:16.720Z,98042.44
2022-09-28T16:00:46.488Z,98038.03
2022-09-28T16:03:24.905Z,98031.59
2022-09-28T16:06:07.022Z,98029.69
2022-09-28T16:08:42.180Z,98032.25
2022-09-28T16:11:18.390Z,98021.63
2022-09-28T16:13:57.332Z,98024.78
2022-09-28T16:16:30.349Z,98027.22
2022-09-28T16:19:01.815Z,98020.19
2022-09-28T16:21:43.730Z,98015.97
2022-09-28T16:24:21.564Z,98028.19
2022-09-28T16:26:59.393Z,98029.75
2022-09-28T16:29:40.130Z,98028.38
2022-09-28T16:32:38.313Z,98026.34
2022-09-28T16:35:20.519Z,98027.78
2022-09-28T16:37:55.401Z,98037.13
2022-09-28T16:40:24.247Z,98042.44
2022-09-28T16:42:57.219Z,98056.31
2022-09-28T16:45:25.993Z,98046.66
2022-09-28T16:47:57.612Z,98035.91
2022-09-28T16:50:26.739Z,98046.28
2022-09-28T16:53:19.735Z,98044.72
2022-09-28T16:55:50.174Z,98044.34
2022-09-28T16:58:20.136Z,98030.91
2022-09-28T17:00:48.500Z,98033.84
2022-09-28T17:03:19.346Z,98031.03
2022-09-28T17:05:49.106Z,98033.69
2022-09-28T17:08:19.654Z,98034.56
2022-09-28T17:11:13.993Z,98038.56
2022-09-28T17:13:44.058Z,98032.53
2022-09-28T17:16:14.850Z,98033.47
2022-09-28T17:18:43.356Z,98029.69
2022-09-28T17:21:15.800Z,98026.31
2022-09-28T17:23:44.994Z,98031.00
2022-09-28T17:26:20.252Z,98031.03
2022-09-28T17:28:50.622Z,98029.16
2022-09-28T17:31:19.135Z,98026.25
2022-09-28T17:33:47.541Z,98022.06
2022-09-28T17:36:19.147Z,98018.84
2022-09-28T17:38:49.277Z,98021.19
2022-09-28T17:41:20.615Z,98021.75
2022-09-28T17:43:51.138Z,98018.41
2022-09-28T17:46:29.011Z,98024.59
2022-09-28T17:49:00.101Z,98030.41
2022-09-28T17:51:30.231Z,98034.84
2022-09-28T17:54:01.059Z,98036.91
2022-09-28T17:56:32.571Z,98026.16
2022-09-28T17:59:05.065Z,98033.56
2022-09-28T18:01:35.135Z,98030.25
2022-09-28T18:04:05.185Z,98034.75
2022-09-28T18:06:34.458Z,98027.34
2022-09-28T18:09:04.303Z,98032.78
2022-09-28T18:11:35.338Z,98034.78
2022-09-28T18:14:10.457Z,98033.28
2022-09-28T18:16:39.771Z,98029.69
2022-09-28T18:19:08.346Z,98024.34
2022-09-28T18:21:36.980Z,98027.19
2022-09-28T18:24:05.679Z,98019.41
2022-09-28T18:26:34.449Z,98023.06
2022-09-28T18:29:02.908Z,98022.34
2022-09-28T18:31:33.082Z,98023.16
2022-09-28T18:34:01.967Z,98023.91
2022-09-28T18:36:30.674Z,98030.56
2022-09-28T18:39:01.503Z,98039.91
2022-09-28T18:41:30.503Z,98032.56
2022-09-28T18:44:01.279Z,98034.22
2022-09-28T18:46:36.791Z,98046.34
2022-09-28T18:49:07.243Z,98040.53
2022-09-28T18:51:35.670Z,98034.75
2022-09-28T18:54:07.295Z,98038.84
2022-09-28T18:56:38.007Z,98034.66
2022-09-28T18:59:09.960Z,98030.06
2022-09-28T19:01:43.368Z,98034.75
2022-09-28T19:04:13.614Z,98032.84
2022-09-28T19:06:44.729Z,98038.16
2022-09-28T19:09:13.529Z,98024.97
2022-09-28T19:11:42.404Z,98032.34
2022-09-28T19:14:15.290Z,98040.66
2022-09-28T19:16:44.803Z,98027.50
2022-09-28T19:19:18.805Z,98034.19
2022-09-28T19:21:48.118Z,98029.19
2022-09-28T19:24:18.473Z,98036.34
2022-09-28T19:26:48.703Z,98039.25
2022-09-28T19:29:17.637Z,98033.75
2022-09-28T19:31:46.308Z,98034.41
2022-09-28T19:34:16.680Z,98033.81
2022-09-28T19:36:45.756Z,98036.00
2022-09-28T19:39:15.401Z,98030.56
2022-09-28T19:41:49.586Z,98028.53
2022-09-28T19:44:25.080Z,98029.97
2022-09-28T19:46:56.060Z,98034.19
2022-09-28T19:49:33.106Z,98032.66
2022-09-28T19:52:12.568Z,98018.34
2022-09-28T19:54:43.908Z,98030.69
2022-09-28T19:57:16.049Z,98017.72
2022-09-28T19:59:47.491Z,98016.66
2022-09-28T20:02:19.888Z,98013.75
2022-09-28T20:04:53.629Z,98011.19
2022-09-28T20:07:22.166Z,98011.13
2022-09-28T20:09:51.664Z,98010.69
2022-09-28T20:12:20.255Z,97999.19
2022-09-28T20:14:49.075Z,98012.28
2022-09-28T20:17:19.435Z,98012.97
2022-09-28T20:19:48.270Z,98012.31
2022-09-28T20:22:20.047Z,98009.69
2022-09-28T20:24:49.351Z,98016.41
2022-09-28T20:27:17.863Z,98012.03
2022-09-28T20:29:46.362Z,98007.75
2022-09-28T20:32:15.062Z,98013.22
2022-09-28T20:34:43.483Z,98023.03
2022-09-28T20:37:13.792Z,98025.91
2022-09-28T20:39:45.200Z,98020.78
2022-09-28T20:42:15.492Z,98014.19
2022-09-28T20:44:44.494Z,98011.34
2022-09-28T20:47:12.869Z,98013.34
2022-09-28T20:49:41.621Z,98011.44
2022-09-28T20:52:10.595Z,98015.63
2022-09-28T20:54:39.076Z,98009.75
2022-09-28T20:57:17.608Z,98014.97
2022-09-28T20:59:49.797Z,98008.97
2022-09-28T21:02:22.434Z,98005.09
2022-09-28T21:04:51.152Z,98014.59
2022-09-28T21:07:19.767Z,98007.75
2022-09-28T21:09:48.454Z,98015.41
2022-09-28T21:12:19.196Z,98011.78
2022-09-28T21:14:47.626Z,98020.53
2022-09-28T21:17:16.027Z,98021.38
2022-09-28T21:19:44.814Z,98014.91
2022-09-28T21:22:13.554Z,98019.47
2022-09-28T21:24:41.897Z,98018.06
2022-09-28T21:27:10.726Z,98025.53
2022-09-28T21:29:40.560Z,98026.91
2022-09-28T21:32:09.222Z,98028.91
2022-09-28T21:34:37.978Z,98020.84
2022-09-28T21:37:07.020Z,98024.75
2022-09-28T21:39:35.514Z,98025.09
2022-09-28T21:42:04.517Z,98023.22
2022-09-28T21:44:32.927Z,98017.66
2022-09-28T21:47:02.753Z,98018.19
2022-09-28T21:49:31.336Z,98018.94
2022-09-28T21:51:59.717Z,98020.22
2022-09-28T21:54:28.928Z,98021.59
2022-09-28T21:56:57.512Z,98019.06
2022-09-28T21:59:25.920Z,98018.09
2022-09-28T22:01:54.352Z,98009.41
2022-09-28T22:04:24.232Z,98014.06
2022-09-28T22:06:52.589Z,98017.97
2022-09-28T22:09:20.939Z,98018.50
2022-09-28T22:11:49.725Z,98013.63
2022-09-28T22:14:18.133Z,98013.63
2022-09-28T22:16:46.481Z,98015.66
2022-09-28T22:19:15.155Z,98013.09
2022-09-28T22:21:45.049Z,98019.78
2022-09-28T22:24:13.733Z,98014.78
2022-09-28T22:26:42.363Z,98015.31
2022-09-28T22:29:10.953Z,98019.88
2022-09-28T22:31:41.265Z,98012.69
2022-09-28T22:34:11.061Z,98016.84
2022-09-28T22:36:39.658Z,98017.56
2022-09-28T22:39:09.603Z,98015.16
2022-09-28T22:41:38.114Z,98004.75
2022-09-28T22:44:06.710Z,98012.38
2022-09-28T22:46:35.178Z,98013.34
2022-09-28T22:49:03.842Z,98010.59
2022-09-28T22:51:32.613Z,98010.16
2022-09-28T22:54:01.283Z,98013.09
2022-09-28T22:56:31.681Z,98019.38
2022-09-28T22:59:00.715Z,98015.16
2022-09-28T23:01:31.035Z,98009.84
2022-09-28T23:04:00.885Z,98011.22
2022-09-28T23:06:30.824Z,98022.25
2022-09-28T23:08:59.338Z,98013.44
2022-09-28T23:11:28.773Z,98015.13
2022-09-28T23:14:00.393Z,98021.16
2022-09-28T23:16:30.220Z,98017.75
2022-09-28T23:18:58.833Z,98019.56
2022-09-28T23:21:28.286Z,98017.91
2022-09-28T23:23:58.510Z,98019.69
2022-09-28T23:26:29.115Z,98018.31
2022-09-28T23:28:59.881Z,98017.25
2022-09-28T23:31:30.510Z,98021.78
2022-09-28T23:34:00.093Z,98013.84
2022-09-28T23:36:28.921Z,98015.84
2022-09-28T23:38:57.596Z,98017.91
2022-09-28T23:41:26.282Z,98013.63
2022-09-28T23:43:54.984Z,98010.78
2022-09-28T23:46:24.810Z,98009.06
2022-09-28T23:48:53.722Z,98012.03
2022-09-28T23:51:22.442Z,98010.88
2022-09-28T23:53:50.889Z,98011.91
2022-09-28T23:56:19.888Z,98018.38
2022-09-28T23:58:48.286Z,98019.44
